sensor_id;sensor_type;location;lat;lon;timestamp;temperature;humidity
10905;DHT22;5505;51.450;9.254;2024-02-21T00:01:45;6.80;99.90
10905;DHT22;5505;51.450;9.254;2024-02-21T00:04:32;6.80;99.90
10905;DHT22;5505;51.450;9.254;2024-02-21T00:07:18;7.00;99.90
10905;DHT22;5505;51.450;9.254;2024-02-21T00:10:06;6.80;99.90
10905;DHT22;5505;51.450;9.254;2024-02-21T00:12:54;6.80;99.90
10905;DHT22;5505;51.450;9.254;2024-02-21T00:15:42;6.80;99.90
10905;DHT22;5505;51.450;9.254;2024-02-21T00:18:29;6.80;99.90
10905;DHT22;5505;51.450;9.254;2024-02-21T00:21:16;5.40;99.90
10905;DHT22;5505;51.450;9.254;2024-02-21T00:24:04;6.80;99.90
10905;DHT22;5505;51.450;9.254;2024-02-21T00:26:53;6.80;99.90
10905;DHT22;5505;51.450;9.254;2024-02-21T00:29:40;6.80;99.90
10905;DHT22;5505;51.450;9.254;2024-02-21T00:32:28;6.80;99.90
10905;DHT22;5505;51.450;9.254;2024-02-21T00:35:15;6.80;99.90
10905;DHT22;5505;51.450;9.254;2024-02-21T00:38:02;6.70;99.90
10905;DHT22;5505;51.450;9.254;2024-02-21T00:40:48;6.70;99.90
10905;DHT22;5505;51.450;9.254;2024-02-21T00:43:35;6.70;99.90
10905;DHT22;5505;51.450;9.254;2024-02-21T00:46:22;6.70;99.90
10905;DHT22;5505;51.450;9.254;2024-02-21T00:49:10;6.70;99.90
10905;DHT22;5505;51.450;9.254;2024-02-21T00:51:57;6.80;99.90
10905;DHT22;5505;51.450;9.254;2024-02-21T00:54:43;6.70;99.90
10905;DHT22;5505;51.450;9.254;2024-02-21T00:57:30;6.70;99.90
10905;DHT22;5505;51.450;9.254;2024-02-21T01:00:18;6.70;99.90
10905;DHT22;5505;51.450;9.254;2024-02-21T01:03:05;6.70;99.90
10905;DHT22;5505;51.450;9.254;2024-02-21T01:05:53;6.80;99.90
10905;DHT22;5505;51.450;9.254;2024-02-21T01:08:40;6.80;99.90
10905;DHT22;5505;51.450;9.254;2024-02-21T01:11:27;6.80;99.90
10905;DHT22;5505;51.450;9.254;2024-02-21T01:14:14;6.90;99.90
10905;DHT22;5505;51.450;9.254;2024-02-21T01:17:00;6.90;99.90
10905;DHT22;5505;51.450;9.254;2024-02-21T01:19:47;6.90;99.90
10905;DHT22;5505;51.450;9.254;2024-02-21T01:22:36;6.90;99.90
10905;DHT22;5505;51.450;9.254;2024-02-21T01:25:23;6.90;99.90
10905;DHT22;5505;51.450;9.254;2024-02-21T01:28:10;6.90;99.90
10905;DHT22;5505;51.450;9.254;2024-02-21T01:30:56;6.90;99.90
10905;DHT22;5505;51.450;9.254;2024-02-21T01:33:43;6.90;99.90
10905;DHT22;5505;51.450;9.254;2024-02-21T01:36:30;6.90;99.90
10905;DHT22;5505;51.450;9.254;2024-02-21T01:39:18;7.00;99.90
10905;DHT22;5505;51.450;9.254;2024-02-21T01:42:05;7.00;99.90
10905;DHT22;5505;51.450;9.254;2024-02-21T01:44:52;7.00;99.90
10905;DHT22;5505;51.450;9.254;2024-02-21T01:47:38;7.00;99.90
10905;DHT22;5505;51.450;9.254;2024-02-21T01:50:26;7.00;99.90
10905;DHT22;5505;51.450;9.254;2024-02-21T01:53:13;7.10;99.90
10905;DHT22;5505;51.450;9.254;2024-02-21T01:56:06;7.10;99.90
10905;DHT22;5505;51.450;9.254;2024-02-21T01:58:54;7.10;99.90
10905;DHT22;5505;51.450;9.254;2024-02-21T02:01:41;7.10;99.90
10905;DHT22;5505;51.450;9.254;2024-02-21T02:04:29;7.10;99.90
10905;DHT22;5505;51.450;9.254;2024-02-21T02:07:15;7.20;99.90
10905;DHT22;5505;51.450;9.254;2024-02-21T02:10:03;6.40;99.90
10905;DHT22;5505;51.450;9.254;2024-02-21T02:12:51;7.20;99.90
10905;DHT22;5505;51.450;9.254;2024-02-21T02:15:38;7.20;99.90
10905;DHT22;5505;51.450;9.254;2024-02-21T02:18:26;7.10;99.90
10905;DHT22;5505;51.450;9.254;2024-02-21T02:21:22;7.10;99.90
10905;DHT22;5505;51.450;9.254;2024-02-21T02:24:11;6.90;99.90
10905;DHT22;5505;51.450;9.254;2024-02-21T02:27:00;7.10;99.90
10905;DHT22;5505;51.450;9.254;2024-02-21T02:29:46;7.10;99.90
10905;DHT22;5505;51.450;9.254;2024-02-21T02:32:33;7.10;99.90
10905;DHT22;5505;51.450;9.254;2024-02-21T02:35:20;8.00;99.90
10905;DHT22;5505;51.450;9.254;2024-02-21T02:38:07;7.10;99.90
10905;DHT22;5505;51.450;9.254;2024-02-21T02:40:55;7.00;99.90
10905;DHT22;5505;51.450;9.254;2024-02-21T02:43:42;7.10;99.90
10905;DHT22;5505;51.450;9.254;2024-02-21T02:46:28;7.00;99.90
10905;DHT22;5505;51.450;9.254;2024-02-21T02:49:15;7.00;99.90
10905;DHT22;5505;51.450;9.254;2024-02-21T02:52:02;7.00;99.90
10905;DHT22;5505;51.450;9.254;2024-02-21T02:54:49;7.00;99.90
10905;DHT22;5505;51.450;9.254;2024-02-21T02:57:38;8.10;99.90
10905;DHT22;5505;51.450;9.254;2024-02-21T03:00:27;6.90;99.90
10905;DHT22;5505;51.450;9.254;2024-02-21T03:03:14;7.00;99.90
10905;DHT22;5505;51.450;9.254;2024-02-21T03:06:00;7.00;99.90
10905;DHT22;5505;51.450;9.254;2024-02-21T03:08:47;6.90;99.90
10905;DHT22;5505;51.450;9.254;2024-02-21T03:11:35;7.00;99.90
10905;DHT22;5505;51.450;9.254;2024-02-21T03:14:23;6.90;99.90
10905;DHT22;5505;51.450;9.254;2024-02-21T03:17:10;6.90;99.90
10905;DHT22;5505;51.450;9.254;2024-02-21T03:19:57;7.00;99.90
10905;DHT22;5505;51.450;9.254;2024-02-21T03:22:45;7.00;99.90
10905;DHT22;5505;51.450;9.254;2024-02-21T03:25:32;7.00;99.90
10905;DHT22;5505;51.450;9.254;2024-02-21T03:28:19;7.00;99.90
10905;DHT22;5505;51.450;9.254;2024-02-21T03:31:07;7.10;99.90
10905;DHT22;5505;51.450;9.254;2024-02-21T03:33:53;7.10;99.90
10905;DHT22;5505;51.450;9.254;2024-02-21T03:36:40;7.10;99.90
10905;DHT22;5505;51.450;9.254;2024-02-21T03:39:27;8.80;99.90
10905;DHT22;5505;51.450;9.254;2024-02-21T03:42:17;7.10;99.90
10905;DHT22;5505;51.450;9.254;2024-02-21T03:45:05;7.10;99.90
10905;DHT22;5505;51.450;9.254;2024-02-21T03:47:53;7.20;99.90
10905;DHT22;5505;51.450;9.254;2024-02-21T03:50:40;8.20;99.90
10905;DHT22;5505;51.450;9.254;2024-02-21T03:53:27;7.20;99.90
10905;DHT22;5505;51.450;9.254;2024-02-21T03:56:13;7.10;99.90
10905;DHT22;5505;51.450;9.254;2024-02-21T03:59:00;7.10;99.90
10905;DHT22;5505;51.450;9.254;2024-02-21T04:01:47;7.00;99.90
10905;DHT22;5505;51.450;9.254;2024-02-21T04:04:43;7.00;99.90
10905;DHT22;5505;51.450;9.254;2024-02-21T04:07:31;7.00;99.90
10905;DHT22;5505;51.450;9.254;2024-02-21T04:10:18;7.00;99.90
10905;DHT22;5505;51.450;9.254;2024-02-21T04:13:06;7.00;99.90
10905;DHT22;5505;51.450;9.254;2024-02-21T04:15:53;6.90;99.90
10905;DHT22;5505;51.450;9.254;2024-02-21T04:18:40;6.80;99.90
10905;DHT22;5505;51.450;9.254;2024-02-21T04:21:28;6.90;99.90
10905;DHT22;5505;51.450;9.254;2024-02-21T04:24:15;6.90;99.90
10905;DHT22;5505;51.450;9.254;2024-02-21T04:27:02;6.80;99.90
10905;DHT22;5505;51.450;9.254;2024-02-21T04:29:49;6.80;99.90
10905;DHT22;5505;51.450;9.254;2024-02-21T04:32:35;6.90;99.90
10905;DHT22;5505;51.450;9.254;2024-02-21T04:35:22;6.90;99.90
10905;DHT22;5505;51.450;9.254;2024-02-21T04:38:10;6.90;99.90
10905;DHT22;5505;51.450;9.254;2024-02-21T04:40:57;6.80;99.90
10905;DHT22;5505;51.450;9.254;2024-02-21T04:43:46;6.80;99.90
10905;DHT22;5505;51.450;9.254;2024-02-21T04:46:33;6.70;99.90
10905;DHT22;5505;51.450;9.254;2024-02-21T04:49:19;6.70;99.90
10905;DHT22;5505;51.450;9.254;2024-02-21T04:52:06;6.70;99.90
10905;DHT22;5505;51.450;9.254;2024-02-21T04:54:54;6.60;99.90
10905;DHT22;5505;51.450;9.254;2024-02-21T04:57:41;6.70;99.90
10905;DHT22;5505;51.450;9.254;2024-02-21T05:00:28;6.50;99.90
10905;DHT22;5505;51.450;9.254;2024-02-21T05:03:15;6.50;99.90
10905;DHT22;5505;51.450;9.254;2024-02-21T05:06:02;6.50;99.90
10905;DHT22;5505;51.450;9.254;2024-02-21T05:08:48;6.60;99.90
10905;DHT22;5505;51.450;9.254;2024-02-21T05:11:36;6.60;99.90
10905;DHT22;5505;51.450;9.254;2024-02-21T05:14:24;6.70;99.90
10905;DHT22;5505;51.450;9.254;2024-02-21T05:17:12;6.70;99.90
10905;DHT22;5505;51.450;9.254;2024-02-21T05:19:59;6.70;99.90
10905;DHT22;5505;51.450;9.254;2024-02-21T05:22:45;6.70;99.90
10905;DHT22;5505;51.450;9.254;2024-02-21T05:25:32;6.70;99.90
10905;DHT22;5505;51.450;9.254;2024-02-21T05:28:20;7.40;99.90
10905;DHT22;5505;51.450;9.254;2024-02-21T05:31:07;6.80;99.90
10905;DHT22;5505;51.450;9.254;2024-02-21T05:33:54;6.80;99.90
10905;DHT22;5505;51.450;9.254;2024-02-21T05:36:41;6.80;99.90
10905;DHT22;5505;51.450;9.254;2024-02-21T05:39:27;7.80;99.90
10905;DHT22;5505;51.450;9.254;2024-02-21T05:42:14;6.90;99.90
10905;DHT22;5505;51.450;9.254;2024-02-21T05:45:03;5.50;99.90
10905;DHT22;5505;51.450;9.254;2024-02-21T05:47:50;6.90;99.90
10905;DHT22;5505;51.450;9.254;2024-02-21T05:50:37;6.90;99.90
10905;DHT22;5505;51.450;9.254;2024-02-21T05:53:24;7.00;99.90
10905;DHT22;5505;51.450;9.254;2024-02-21T05:56:11;7.00;99.90
10905;DHT22;5505;51.450;9.254;2024-02-21T05:58:58;7.00;99.90
10905;DHT22;5505;51.450;9.254;2024-02-21T06:01:55;7.00;99.90
10905;DHT22;5505;51.450;9.254;2024-02-21T06:04:43;7.00;99.90
10905;DHT22;5505;51.450;9.254;2024-02-21T06:07:31;7.00;99.90
10905;DHT22;5505;51.450;9.254;2024-02-21T06:10:18;6.90;99.90
10905;DHT22;5505;51.450;9.254;2024-02-21T06:13:05;6.90;99.90
10905;DHT22;5505;51.450;9.254;2024-02-21T06:15:52;6.90;99.90
10905;DHT22;5505;51.450;9.254;2024-02-21T06:18:40;7.00;99.90
10905;DHT22;5505;51.450;9.254;2024-02-21T06:21:29;8.70;99.90
10905;DHT22;5505;51.450;9.254;2024-02-21T06:24:16;6.90;99.90
10905;DHT22;5505;51.450;9.254;2024-02-21T06:27:03;5.30;99.90
10905;DHT22;5505;51.450;9.254;2024-02-21T06:29:51;6.90;99.90
10905;DHT22;5505;51.450;9.254;2024-02-21T06:32:38;6.90;99.90
10905;DHT22;5505;51.450;9.254;2024-02-21T06:35:26;6.80;99.90
10905;DHT22;5505;51.450;9.254;2024-02-21T06:38:13;6.80;99.90
10905;DHT22;5505;51.450;9.254;2024-02-21T06:41:01;6.80;99.90
10905;DHT22;5505;51.450;9.254;2024-02-21T06:43:48;7.20;99.90
10905;DHT22;5505;51.450;9.254;2024-02-21T06:46:35;6.80;99.90
10905;DHT22;5505;51.450;9.254;2024-02-21T06:49:22;6.70;99.90
10905;DHT22;5505;51.450;9.254;2024-02-21T06:52:10;6.60;99.90
10905;DHT22;5505;51.450;9.254;2024-02-21T06:54:57;6.70;99.90
10905;DHT22;5505;51.450;9.254;2024-02-21T06:57:44;6.80;99.90
10905;DHT22;5505;51.450;9.254;2024-02-21T07:00:30;7.50;99.90
10905;DHT22;5505;51.450;9.254;2024-02-21T07:03:17;6.80;99.90
10905;DHT22;5505;51.450;9.254;2024-02-21T07:06:04;6.80;99.90
10905;DHT22;5505;51.450;9.254;2024-02-21T07:08:52;6.80;99.90
10905;DHT22;5505;51.450;9.254;2024-02-21T07:11:39;6.80;99.90
10905;DHT22;5505;51.450;9.254;2024-02-21T07:14:27;6.80;99.90
10905;DHT22;5505;51.450;9.254;2024-02-21T07:17:14;6.80;99.90
10905;DHT22;5505;51.450;9.254;2024-02-21T07:20:01;6.80;99.90
10905;DHT22;5505;51.450;9.254;2024-02-21T07:22:48;6.90;99.90
10905;DHT22;5505;51.450;9.254;2024-02-21T07:25:36;6.90;99.90
10905;DHT22;5505;51.450;9.254;2024-02-21T07:28:23;6.90;99.90
10905;DHT22;5505;51.450;9.254;2024-02-21T07:31:10;6.90;99.90
10905;DHT22;5505;51.450;9.254;2024-02-21T07:33:56;7.20;99.90
10905;DHT22;5505;51.450;9.254;2024-02-21T07:36:43;7.00;99.90
10905;DHT22;5505;51.450;9.254;2024-02-21T07:39:31;7.00;99.90
10905;DHT22;5505;51.450;9.254;2024-02-21T07:42:19;7.00;99.90
10905;DHT22;5505;51.450;9.254;2024-02-21T07:45:06;7.10;99.90
10905;DHT22;5505;51.450;9.254;2024-02-21T07:47:53;7.10;99.90
10905;DHT22;5505;51.450;9.254;2024-02-21T07:50:40;7.20;99.90
10905;DHT22;5505;51.450;9.254;2024-02-21T07:53:27;7.30;99.90
10905;DHT22;5505;51.450;9.254;2024-02-21T07:56:14;7.40;99.90
10905;DHT22;5505;51.450;9.254;2024-02-21T07:59:02;7.50;99.90
10905;DHT22;5505;51.450;9.254;2024-02-21T08:01:49;7.70;99.90
10905;DHT22;5505;51.450;9.254;2024-02-21T08:04:36;7.80;99.90
10905;DHT22;5505;51.450;9.254;2024-02-21T08:07:23;7.90;99.90
10905;DHT22;5505;51.450;9.254;2024-02-21T08:10:10;7.90;99.90
10905;DHT22;5505;51.450;9.254;2024-02-21T08:12:57;8.70;99.90
10905;DHT22;5505;51.450;9.254;2024-02-21T08:15:45;8.00;99.90
10905;DHT22;5505;51.450;9.254;2024-02-21T08:18:31;9.10;99.90
10905;DHT22;5505;51.450;9.254;2024-02-21T08:21:21;7.90;99.90
10905;DHT22;5505;51.450;9.254;2024-02-21T08:24:08;7.90;99.90
10905;DHT22;5505;51.450;9.254;2024-02-21T08:26:56;8.60;99.90
10905;DHT22;5505;51.450;9.254;2024-02-21T08:29:42;7.90;99.90
10905;DHT22;5505;51.450;9.254;2024-02-21T08:32:31;8.00;99.90
10905;DHT22;5505;51.450;9.254;2024-02-21T08:35:17;8.00;99.90
10905;DHT22;5505;51.450;9.254;2024-02-21T08:38:05;8.10;99.90
10905;DHT22;5505;51.450;9.254;2024-02-21T08:40:51;8.10;99.90
10905;DHT22;5505;51.450;9.254;2024-02-21T08:43:38;8.10;99.90
10905;DHT22;5505;51.450;9.254;2024-02-21T08:46:25;8.00;99.90
10905;DHT22;5505;51.450;9.254;2024-02-21T08:49:13;9.00;99.90
10905;DHT22;5505;51.450;9.254;2024-02-21T08:52:00;8.10;99.90
10905;DHT22;5505;51.450;9.254;2024-02-21T08:54:47;8.10;99.90
10905;DHT22;5505;51.450;9.254;2024-02-21T08:57:34;8.10;99.90
10905;DHT22;5505;51.450;9.254;2024-02-21T09:00:22;8.10;99.90
10905;DHT22;5505;51.450;9.254;2024-02-21T09:03:12;9.80;99.90
10905;DHT22;5505;51.450;9.254;2024-02-21T09:06:00;8.20;99.90
10905;DHT22;5505;51.450;9.254;2024-02-21T09:08:47;8.40;99.90
10905;DHT22;5505;51.450;9.254;2024-02-21T09:11:34;8.50;99.90
10905;DHT22;5505;51.450;9.254;2024-02-21T09:14:21;8.60;99.90
10905;DHT22;5505;51.450;9.254;2024-02-21T09:17:08;8.70;99.90
10905;DHT22;5505;51.450;9.254;2024-02-21T09:19:54;8.70;99.90
10905;DHT22;5505;51.450;9.254;2024-02-21T09:22:45;8.80;99.90
10905;DHT22;5505;51.450;9.254;2024-02-21T09:25:32;8.80;99.90
10905;DHT22;5505;51.450;9.254;2024-02-21T09:28:19;8.80;99.90
10905;DHT22;5505;51.450;9.254;2024-02-21T09:31:06;8.90;99.90
10905;DHT22;5505;51.450;9.254;2024-02-21T09:33:53;8.80;99.90
10905;DHT22;5505;51.450;9.254;2024-02-21T09:36:39;8.80;99.90
10905;DHT22;5505;51.450;9.254;2024-02-21T09:39:27;8.80;99.90
10905;DHT22;5505;51.450;9.254;2024-02-21T09:42:14;8.90;99.90
10905;DHT22;5505;51.450;9.254;2024-02-21T09:45:08;8.90;99.90
10905;DHT22;5505;51.450;9.254;2024-02-21T09:48:09;8.80;99.90
10905;DHT22;5505;51.450;9.254;2024-02-21T09:51:01;8.80;99.90
10905;DHT22;5505;51.450;9.254;2024-02-21T09:53:48;8.80;99.90
10905;DHT22;5505;51.450;9.254;2024-02-21T09:56:38;8.90;99.90
10905;DHT22;5505;51.450;9.254;2024-02-21T09:59:25;8.90;99.90
10905;DHT22;5505;51.450;9.254;2024-02-21T10:02:13;9.00;99.90
10905;DHT22;5505;51.450;9.254;2024-02-21T10:05:00;9.00;99.90
10905;DHT22;5505;51.450;9.254;2024-02-21T10:07:49;9.10;99.90
10905;DHT22;5505;51.450;9.254;2024-02-21T10:10:43;9.20;99.90
10905;DHT22;5505;51.450;9.254;2024-02-21T10:13:31;10.40;99.90
10905;DHT22;5505;51.450;9.254;2024-02-21T10:16:18;9.40;99.90
10905;DHT22;5505;51.450;9.254;2024-02-21T10:19:05;9.80;99.90
10905;DHT22;5505;51.450;9.254;2024-02-21T10:22:00;9.50;99.90
10905;DHT22;5505;51.450;9.254;2024-02-21T10:24:49;9.40;99.90
10905;DHT22;5505;51.450;9.254;2024-02-21T10:27:36;9.40;99.90
10905;DHT22;5505;51.450;9.254;2024-02-21T10:30:24;10.20;99.90
10905;DHT22;5505;51.450;9.254;2024-02-21T10:33:15;9.30;99.90
10905;DHT22;5505;51.450;9.254;2024-02-21T10:36:07;9.30;99.90
10905;DHT22;5505;51.450;9.254;2024-02-21T10:38:55;9.20;99.90
10905;DHT22;5505;51.450;9.254;2024-02-21T10:41:42;9.80;99.90
10905;DHT22;5505;51.450;9.254;2024-02-21T10:44:31;10.70;99.90
10905;DHT22;5505;51.450;9.254;2024-02-21T10:47:19;9.30;99.90
10905;DHT22;5505;51.450;9.254;2024-02-21T10:50:12;9.20;99.90
10905;DHT22;5505;51.450;9.254;2024-02-21T10:53:07;9.20;99.90
10905;DHT22;5505;51.450;9.254;2024-02-21T10:56:09;9.30;99.90
10905;DHT22;5505;51.450;9.254;2024-02-21T10:58:58;9.30;99.90
10905;DHT22;5505;51.450;9.254;2024-02-21T11:01:48;9.30;99.90
10905;DHT22;5505;51.450;9.254;2024-02-21T11:04:36;9.30;99.90
10905;DHT22;5505;51.450;9.254;2024-02-21T11:07:24;10.10;99.90
10905;DHT22;5505;51.450;9.254;2024-02-21T11:10:20;9.20;99.90
10905;DHT22;5505;51.450;9.254;2024-02-21T11:13:08;9.70;99.90
10905;DHT22;5505;51.450;9.254;2024-02-21T11:15:54;9.20;99.90
10905;DHT22;5505;51.450;9.254;2024-02-21T11:18:51;9.20;99.90
10905;DHT22;5505;51.450;9.254;2024-02-21T11:21:39;9.30;99.90
10905;DHT22;5505;51.450;9.254;2024-02-21T11:24:28;10.40;99.90
10905;DHT22;5505;51.450;9.254;2024-02-21T11:27:16;9.30;99.90
10905;DHT22;5505;51.450;9.254;2024-02-21T11:30:06;9.30;99.90
10905;DHT22;5505;51.450;9.254;2024-02-21T11:32:59;9.30;99.90
10905;DHT22;5505;51.450;9.254;2024-02-21T11:35:46;9.30;99.90
10905;DHT22;5505;51.450;9.254;2024-02-21T11:38:34;9.30;99.90
10905;DHT22;5505;51.450;9.254;2024-02-21T11:41:21;9.90;99.90
10905;DHT22;5505;51.450;9.254;2024-02-21T11:44:08;9.30;99.90
10905;DHT22;5505;51.450;9.254;2024-02-21T11:46:55;9.20;99.90
10905;DHT22;5505;51.450;9.254;2024-02-21T11:49:44;9.30;99.90
10905;DHT22;5505;51.450;9.254;2024-02-21T11:52:32;9.20;99.90
10905;DHT22;5505;51.450;9.254;2024-02-21T11:55:20;9.20;99.90
10905;DHT22;5505;51.450;9.254;2024-02-21T11:58:08;9.20;99.90
10905;DHT22;5505;51.450;9.254;2024-02-21T12:00:55;9.20;99.90
10905;DHT22;5505;51.450;9.254;2024-02-21T12:03:42;10.10;99.90
10905;DHT22;5505;51.450;9.254;2024-02-21T12:06:34;9.20;99.90
10905;DHT22;5505;51.450;9.254;2024-02-21T12:09:23;9.20;99.90
10905;DHT22;5505;51.450;9.254;2024-02-21T12:12:11;9.30;99.90
10905;DHT22;5505;51.450;9.254;2024-02-21T12:14:58;10.00;99.90
10905;DHT22;5505;51.450;9.254;2024-02-21T12:17:45;9.40;99.90
10905;DHT22;5505;51.450;9.254;2024-02-21T12:20:31;9.40;99.90
10905;DHT22;5505;51.450;9.254;2024-02-21T12:23:18;9.40;99.90
10905;DHT22;5505;51.450;9.254;2024-02-21T12:26:05;9.30;99.90
10905;DHT22;5505;51.450;9.254;2024-02-21T12:28:54;9.30;99.90
10905;DHT22;5505;51.450;9.254;2024-02-21T12:31:41;10.00;99.90
10905;DHT22;5505;51.450;9.254;2024-02-21T12:34:28;9.20;99.90
10905;DHT22;5505;51.450;9.254;2024-02-21T12:37:17;9.20;99.90
10905;DHT22;5505;51.450;9.254;2024-02-21T12:40:06;9.20;99.90
10905;DHT22;5505;51.450;9.254;2024-02-21T12:42:53;9.20;99.90
10905;DHT22;5505;51.450;9.254;2024-02-21T12:45:41;9.80;99.90
10905;DHT22;5505;51.450;9.254;2024-02-21T12:48:28;9.30;99.90
10905;DHT22;5505;51.450;9.254;2024-02-21T12:51:14;9.30;99.90
10905;DHT22;5505;51.450;9.254;2024-02-21T12:54:06;9.30;99.90
10905;DHT22;5505;51.450;9.254;2024-02-21T12:56:55;9.20;99.90
10905;DHT22;5505;51.450;9.254;2024-02-21T12:59:42;9.20;99.90
10905;DHT22;5505;51.450;9.254;2024-02-21T13:02:30;8.70;99.90
10905;DHT22;5505;51.450;9.254;2024-02-21T13:05:17;9.30;99.90
10905;DHT22;5505;51.450;9.254;2024-02-21T13:08:04;9.30;99.90
10905;DHT22;5505;51.450;9.254;2024-02-21T13:10:51;9.20;99.90
10905;DHT22;5505;51.450;9.254;2024-02-21T13:13:38;9.20;99.90
10905;DHT22;5505;51.450;9.254;2024-02-21T13:16:25;9.30;99.90
10905;DHT22;5505;51.450;9.254;2024-02-21T13:19:15;9.30;99.90
10905;DHT22;5505;51.450;9.254;2024-02-21T13:22:03;9.30;99.90
10905;DHT22;5505;51.450;9.254;2024-02-21T13:24:49;9.10;99.90
10905;DHT22;5505;51.450;9.254;2024-02-21T13:27:36;9.00;99.90
10905;DHT22;5505;51.450;9.254;2024-02-21T13:30:23;9.00;99.90
10905;DHT22;5505;51.450;9.254;2024-02-21T13:33:10;9.10;99.90
10905;DHT22;5505;51.450;9.254;2024-02-21T13:35:58;9.10;99.90
10905;DHT22;5505;51.450;9.254;2024-02-21T13:38:47;9.10;99.90
10905;DHT22;5505;51.450;9.254;2024-02-21T13:41:34;9.10;99.90
10905;DHT22;5505;51.450;9.254;2024-02-21T13:44:21;9.40;99.90
10905;DHT22;5505;51.450;9.254;2024-02-21T13:47:08;8.90;99.90
10905;DHT22;5505;51.450;9.254;2024-02-21T13:49:56;9.00;99.90
10905;DHT22;5505;51.450;9.254;2024-02-21T13:52:44;9.30;99.90
10905;DHT22;5505;51.450;9.254;2024-02-21T13:55:32;9.10;99.90
10905;DHT22;5505;51.450;9.254;2024-02-21T13:58:18;9.10;99.90
10905;DHT22;5505;51.450;9.254;2024-02-21T14:01:06;9.20;99.90
10905;DHT22;5505;51.450;9.254;2024-02-21T14:03:54;9.10;99.90
10905;DHT22;5505;51.450;9.254;2024-02-21T14:06:41;9.10;99.90
10905;DHT22;5505;51.450;9.254;2024-02-21T14:09:30;7.80;99.90
10905;DHT22;5505;51.450;9.254;2024-02-21T14:12:17;8.90;99.90
10905;DHT22;5505;51.450;9.254;2024-02-21T14:15:06;9.10;99.90
10905;DHT22;5505;51.450;9.254;2024-02-21T14:17:54;9.10;99.90
10905;DHT22;5505;51.450;9.254;2024-02-21T14:20:42;9.10;99.90
10905;DHT22;5505;51.450;9.254;2024-02-21T14:23:29;9.10;99.90
10905;DHT22;5505;51.450;9.254;2024-02-21T14:26:17;9.10;99.90
10905;DHT22;5505;51.450;9.254;2024-02-21T14:29:04;9.00;99.90
10905;DHT22;5505;51.450;9.254;2024-02-21T14:31:50;8.90;99.90
10905;DHT22;5505;51.450;9.254;2024-02-21T14:34:37;8.90;99.90
10905;DHT22;5505;51.450;9.254;2024-02-21T14:37:24;8.80;99.90
10905;DHT22;5505;51.450;9.254;2024-02-21T14:40:11;8.80;99.90
10905;DHT22;5505;51.450;9.254;2024-02-21T14:43:00;8.70;99.90
10905;DHT22;5505;51.450;9.254;2024-02-21T14:45:46;8.60;99.90
10905;DHT22;5505;51.450;9.254;2024-02-21T14:48:34;8.90;99.90
10905;DHT22;5505;51.450;9.254;2024-02-21T14:51:21;8.60;99.90
10905;DHT22;5505;51.450;9.254;2024-02-21T14:54:09;8.70;99.90
10905;DHT22;5505;51.450;9.254;2024-02-21T14:56:56;8.70;99.90
10905;DHT22;5505;51.450;9.254;2024-02-21T14:59:44;8.70;99.90
10905;DHT22;5505;51.450;9.254;2024-02-21T15:02:31;8.90;99.90
10905;DHT22;5505;51.450;9.254;2024-02-21T15:05:17;9.90;99.90
10905;DHT22;5505;51.450;9.254;2024-02-21T15:08:05;9.70;99.90
10905;DHT22;5505;51.450;9.254;2024-02-21T15:10:53;8.70;99.90
10905;DHT22;5505;51.450;9.254;2024-02-21T15:13:40;8.70;99.90
10905;DHT22;5505;51.450;9.254;2024-02-21T15:16:28;8.80;99.90
10905;DHT22;5505;51.450;9.254;2024-02-21T15:19:15;10.60;99.90
10905;DHT22;5505;51.450;9.254;2024-02-21T15:22:01;8.50;99.90
10905;DHT22;5505;51.450;9.254;2024-02-21T15:24:48;8.50;99.90
10905;DHT22;5505;51.450;9.254;2024-02-21T15:27:35;8.40;99.90
10905;DHT22;5505;51.450;9.254;2024-02-21T15:30:22;9.80;99.90
10905;DHT22;5505;51.450;9.254;2024-02-21T15:33:10;9.00;99.90
10905;DHT22;5505;51.450;9.254;2024-02-21T15:35:57;8.30;99.90
10905;DHT22;5505;51.450;9.254;2024-02-21T15:38:45;8.30;99.90
10905;DHT22;5505;51.450;9.254;2024-02-21T15:41:31;8.30;99.90
10905;DHT22;5505;51.450;9.254;2024-02-21T15:44:19;8.30;99.90
10905;DHT22;5505;51.450;9.254;2024-02-21T15:47:06;9.40;99.90
10905;DHT22;5505;51.450;9.254;2024-02-21T15:49:54;8.30;99.90
10905;DHT22;5505;51.450;9.254;2024-02-21T15:52:41;8.20;99.90
10905;DHT22;5505;51.450;9.254;2024-02-21T15:55:28;9.30;99.90
10905;DHT22;5505;51.450;9.254;2024-02-21T15:58:15;8.20;99.90
10905;DHT22;5505;51.450;9.254;2024-02-21T16:01:05;8.20;99.90
10905;DHT22;5505;51.450;9.254;2024-02-21T16:03:52;8.30;99.90
10905;DHT22;5505;51.450;9.254;2024-02-21T16:06:42;8.30;99.90
10905;DHT22;5505;51.450;9.254;2024-02-21T16:09:31;8.30;99.90
10905;DHT22;5505;51.450;9.254;2024-02-21T16:12:18;8.30;99.90
10905;DHT22;5505;51.450;9.254;2024-02-21T16:15:06;8.30;99.90
10905;DHT22;5505;51.450;9.254;2024-02-21T16:17:53;8.20;99.90
10905;DHT22;5505;51.450;9.254;2024-02-21T16:20:40;8.30;99.90
10905;DHT22;5505;51.450;9.254;2024-02-21T16:23:28;8.30;99.90
10905;DHT22;5505;51.450;9.254;2024-02-21T16:26:15;8.20;99.90
10905;DHT22;5505;51.450;9.254;2024-02-21T16:29:02;8.30;99.90
10905;DHT22;5505;51.450;9.254;2024-02-21T16:31:49;8.20;99.90
10905;DHT22;5505;51.450;9.254;2024-02-21T16:34:36;8.20;99.90
10905;DHT22;5505;51.450;9.254;2024-02-21T16:37:22;8.20;99.90
10905;DHT22;5505;51.450;9.254;2024-02-21T16:40:12;10.40;99.90
10905;DHT22;5505;51.450;9.254;2024-02-21T16:42:58;8.20;99.90
10905;DHT22;5505;51.450;9.254;2024-02-21T16:45:48;8.10;99.90
10905;DHT22;5505;51.450;9.254;2024-02-21T16:48:36;8.10;99.90
10905;DHT22;5505;51.450;9.254;2024-02-21T16:51:24;8.20;99.90
10905;DHT22;5505;51.450;9.254;2024-02-21T16:54:10;8.10;99.90
10905;DHT22;5505;51.450;9.254;2024-02-21T16:56:58;8.10;99.90
10905;DHT22;5505;51.450;9.254;2024-02-21T16:59:45;8.20;99.90
10905;DHT22;5505;51.450;9.254;2024-02-21T17:02:32;8.20;99.90
10905;DHT22;5505;51.450;9.254;2024-02-21T17:05:19;8.20;99.90
10905;DHT22;5505;51.450;9.254;2024-02-21T17:08:09;8.20;99.90
10905;DHT22;5505;51.450;9.254;2024-02-21T17:10:56;8.10;99.90
10905;DHT22;5505;51.450;9.254;2024-02-21T17:13:45;8.10;99.90
10905;DHT22;5505;51.450;9.254;2024-02-21T17:16:32;8.10;99.90
10905;DHT22;5505;51.450;9.254;2024-02-21T17:19:19;8.20;99.90
10905;DHT22;5505;51.450;9.254;2024-02-21T17:22:06;9.70;99.90
10905;DHT22;5505;51.450;9.254;2024-02-21T17:24:52;8.10;99.90
10905;DHT22;5505;51.450;9.254;2024-02-21T17:27:39;8.10;99.90
10905;DHT22;5505;51.450;9.254;2024-02-21T17:30:27;8.10;99.90
10905;DHT22;5505;51.450;9.254;2024-02-21T17:33:14;8.10;99.90
10905;DHT22;5505;51.450;9.254;2024-02-21T17:36:01;8.10;99.90
10905;DHT22;5505;51.450;9.254;2024-02-21T17:38:48;8.10;99.90
10905;DHT22;5505;51.450;9.254;2024-02-21T17:41:36;8.10;99.90
10905;DHT22;5505;51.450;9.254;2024-02-21T17:44:23;10.40;99.90
10905;DHT22;5505;51.450;9.254;2024-02-21T17:47:11;8.10;99.90
10905;DHT22;5505;51.450;9.254;2024-02-21T17:49:59;8.10;99.90
10905;DHT22;5505;51.450;9.254;2024-02-21T17:52:46;8.10;99.90
10905;DHT22;5505;51.450;9.254;2024-02-21T17:55:33;8.10;99.90
10905;DHT22;5505;51.450;9.254;2024-02-21T17:58:19;8.20;99.90
10905;DHT22;5505;51.450;9.254;2024-02-21T18:01:06;8.10;99.90
10905;DHT22;5505;51.450;9.254;2024-02-21T18:03:55;8.10;99.90
10905;DHT22;5505;51.450;9.254;2024-02-21T18:06:41;8.10;99.90
10905;DHT22;5505;51.450;9.254;2024-02-21T18:09:28;8.10;99.90
10905;DHT22;5505;51.450;9.254;2024-02-21T18:12:15;8.00;99.90
10905;DHT22;5505;51.450;9.254;2024-02-21T18:15:03;8.00;99.90